Home > Products > Valid Products > MTR

000
SAUS45 KABQ 191654
MTRCQC
METAR KCQC 191653Z AUTO 10011KT 10SM FEW060 12/M04 A3008 RMK AO2
SLP135 T01221044





000
SAUS45 KABQ 191654
MTRTCS
METAR KTCS 191653Z AUTO VRB05KT 10SM CLR 18/M04 A3004 RMK AO2 SLP117
T01781044 TSNO





000
SAUS45 KABQ 191652
MTRABQ
METAR KABQ 191652Z 00000KT 10SM FEW060 FEW200 13/M02 A3009 RMK AO2
SLP146 T01331022





000
SAUS45 KABQ 191554
MTRCQC
METAR KCQC 191553Z AUTO 00000KT 10SM CLR 09/M04 A3007 RMK AO2 SLP137
T00941044





000
SAUS45 KABQ 191554
MTRTCS
METAR KTCS 191553Z AUTO 08006KT 10SM CLR 16/M04 A3004 RMK AO2 SLP118
T01611044 TSNO





000
SAUS45 KABQ 191553
MTRABQ
METAR KABQ 191552Z 00000KT 10SM FEW070 FEW200 12/M01 A3008 RMK AO2
SLP143 T01171011





000
SAUS45 KABQ 191454
MTRCQC
METAR KCQC 191453Z AUTO 35006KT 10SM CLR 08/M03 A3007 RMK AO2 SLP138
T00831033 52019





000
SAUS45 KABQ 191454
MTRTCS
METAR KTCS 191453Z AUTO 04006KT 10SM CLR 14/M05 A3004 RMK AO2 SLP114
T01441050 51017 TSNO





000
SAUS45 KABQ 191453
MTRABQ
METAR KABQ 191452Z 00000KT 10SM FEW070 10/00 A3009 RMK AO2 SLP146
T01000000 51020





000
SAUS45 KABQ 191453
MTRABQ
METAR KABQ 191452Z 00000KT 10SM FEW070 10/00 A3009 RMK AO2 SLP146
T01000000 51020





000
SAUS45 KABQ 191354
MTRTCS
METAR KTCS 191353Z AUTO 33011KT 10SM CLR 12/M06 A3003 RMK AO2 SLP112
T01221056 TSNO





000
SAUS45 KABQ 191354
MTRCQC
METAR KCQC 191353Z AUTO VRB03KT 10SM CLR 05/M03 A3005 RMK AO2 SLP138
T00501033





000
SAUS45 KABQ 191352
MTRABQ
METAR KABQ 191352Z 34007KT 10SM FEW180 09/M01 A3007 RMK AO2 SLP142
T00941006





000
SAUS45 KABQ 191254
MTRTCS
METAR KTCS 191253Z AUTO 35004KT 10SM CLR 09/M06 A3002 RMK AO2 SLP108
T00941056 TSNO





000
SAUS45 KABQ 191254
MTRCQC
METAR KCQC 191253Z AUTO 32011KT 10SM CLR 02/M04 A3001 RMK AO2 SLP132
T00171039





000
SAUS45 KABQ 191252
MTRABQ
METAR KABQ 191252Z VRB03KT 10SM FEW090 FEW180 07/M01 A3005 RMK AO2
SLP134 T00721006





000
SAUS45 KABQ 191154
MTRCQC
METAR KCQC 191153Z AUTO 29008KT 10SM CLR M01/M05 A3000 RMK AO2
SLP132 T10061050 10061 21017 51009





000
SAUS45 KABQ 191154
MTRCQC
METAR KCQC 191153Z AUTO 29008KT 10SM CLR M01/M05 A3000 RMK AO2
SLP132 T10061050 10061 21017 51009





000
SAUS45 KABQ 191154
MTRTCS
METAR KTCS 191153Z AUTO 30014KT 10SM CLR 11/M06 A2998 RMK AO2 SLP095
T01061056 10133 20100 53003 TSNO





000
SAUS45 KABQ 191154
MTRTCS
METAR KTCS 191153Z AUTO 30014KT 10SM CLR 11/M06 A2998 RMK AO2 SLP095
T01061056 10133 20100 53003 TSNO





000
SAUS45 KABQ 191154
MTRABQ
METAR KABQ 191152Z COR 33007KT 10SM FEW180 08/00 A3002 RMK AO2
SLP120 T00830000 10122 20083 53005





000
SAUS45 KABQ 191154
MTRABQ
METAR KABQ 191152Z COR 33007KT 10SM FEW180 08/00 A3002 RMK AO2
SLP120 T00830000 10122 20083 53005





000
SAUS45 KABQ 191152
MTRABQ
METAR KABQ 191152Z 33007KT 10SM CLR 08/00 A3002 RMK AO2 SLP120
T00830000 10122 20083 53005





000
SAUS45 KABQ 191055
MTRCQC
METAR KCQC 191053Z AUTO 31007KT 10SM CLR 01/M04 A2999 RMK AO2 SLP116
T00061044





000
SAUS45 KABQ 191055
MTRCQC
METAR KCQC 191053Z AUTO 31007KT 10SM CLR 01/M04 A2999 RMK AO2 SLP116
T00061044





000
SAUS45 KABQ 191054
MTRTCS
METAR KTCS 191053Z AUTO 30013KT 10SM CLR 11/M05 A2998 RMK AO2 SLP091
T01111050 TSNO





000
SAUS45 KABQ 191054
MTRTCS
METAR KTCS 191053Z AUTO 30013KT 10SM CLR 11/M05 A2998 RMK AO2 SLP091
T01111050 TSNO





000
SAUS45 KABQ 191052
MTRABQ
METAR KABQ 191052Z 31013KT 10SM FEW090 SCT180 09/M01 A3000 RMK AO2
SLP115 T00891006





000
SAUS45 KABQ 190954
MTRCQC
METAR KCQC 190953Z AUTO 33012KT 10SM CLR 04/M03 A2998 RMK AO2 SLP108
T00391033





000
SAUS45 KABQ 190954
MTRTCS
METAR KTCS 190953Z AUTO 31013KT 10SM CLR 11/M04 A2997 RMK AO2 SLP092
T01111039 TSNO





000
SAUS45 KABQ 190953
MTRABQ
METAR KABQ 190952Z 34007KT 10SM FEW090 FEW180 09/M01 A3000 RMK AO2
SLP111 T00941006





000
SAUS45 KABQ 190854
MTRCQC
METAR KCQC 190853Z AUTO 31008KT 10SM CLR 02/M04 A2996 RMK AO2 SLP104
T00171039 53010





000
SAUS45 KABQ 190854
MTRCQC
METAR KCQC 190853Z AUTO 31008KT 10SM CLR 02/M04 A2996 RMK AO2 SLP104
T00171039 53010





000
SAUS45 KABQ 190854
MTRTCS
METAR KTCS 190853Z AUTO 28007KT 10SM CLR 11/M04 A2997 RMK AO2 SLP091
T01061039 51002 TSNO





000
SAUS45 KABQ 190854
MTRTCS
METAR KTCS 190853Z AUTO 28007KT 10SM CLR 11/M04 A2997 RMK AO2 SLP091
T01061039 51002 TSNO





000
SAUS45 KABQ 190852
MTRABQ
METAR KABQ 190852Z 35008KT 10SM SCT180 10/M01 A3000 RMK AO2 SLP111
T01001006 51010





000
SAUS45 KABQ 190852
MTRABQ
METAR KABQ 190852Z 35008KT 10SM SCT180 10/M01 A3000 RMK AO2 SLP111
T01001006 51010





000
SAUS45 KABQ 190755
MTRCQC
METAR KCQC 190753Z AUTO 29013KT 10SM CLR 04/M03 A2995 RMK AO2 SLP093
T00441033





000
SAUS45 KABQ 190754
MTRTCS
METAR KTCS 190753Z AUTO 31007KT 10SM CLR 12/M04 A2997 RMK AO2 SLP088
T01171039 TSNO





000
SAUS45 KABQ 190752
MTRABQ
METAR KABQ 190752Z 34007KT 10SM FEW090 BKN180 11/M02 A2999 RMK AO2
SLP110 T01111017





000
SAUS45 KABQ 190654
MTRTCS
METAR KTCS 190653Z AUTO 31010KT 10SM CLR 12/M04 A2997 RMK AO2 SLP093
T01171039 402220044 TSNO





000
SAUS45 KABQ 190654
MTRCQC
METAR KCQC 190653Z AUTO 30015KT 10SM CLR 06/M04 A2994 RMK AO2 SLP089
T00561044 401281039





000
SAUS45 KABQ 190652
MTRABQ
METAR KABQ 190652Z 35012KT 10SM FEW090 BKN180 12/M03 A2998 RMK AO2
SLP108 T01171028 401720017





000
SAUS45 KABQ 190555
MTRTCS
METAR KTCS 190553Z AUTO 30009KT 10SM CLR 13/M04 A2996 RMK AO2 SLP091
T01281039 10217 20106 51009 TSNO





000
SAUS45 KABQ 190555
MTRTCS
METAR KTCS 190553Z AUTO 30009KT 10SM CLR 13/M04 A2996 RMK AO2 SLP091
T01281039 10217 20106 51009 TSNO





000
SAUS45 KABQ 190554
MTRCQC
METAR KCQC 190553Z AUTO 30013KT 10SM CLR 05/M04 A2993 RMK AO2 SLP088
T00501044 10100 20044 51002





000
SAUS45 KABQ 190554
MTRCQC
METAR KCQC 190553Z AUTO 30013KT 10SM CLR 05/M04 A2993 RMK AO2 SLP088
T00501044 10100 20044 51002





000
SAUS45 KABQ 190553
MTRABQ
METAR KABQ 190552Z 01004KT 10SM FEW100 12/M04 A2996 RMK AO2 SLP106
T01221039 10172 20111 58001





000
SAUS45 KABQ 190553
MTRABQ
METAR KABQ 190552Z 01004KT 10SM FEW100 12/M04 A2996 RMK AO2 SLP106
T01221039 10172 20111 58001





000
SAUS45 KABQ 190454
MTRCQC
METAR KCQC 190453Z AUTO 30021KT 10SM CLR 07/M04 A2992 RMK AO2 PK WND
30028/0401 SLP089 T00671039





000
SAUS45 KABQ 190454
MTRTCS
METAR KTCS 190453Z AUTO 29007KT 10SM CLR 12/M04 A2996 RMK AO2 SLP090
T01221044 TSNO





000
SAUS45 KABQ 190452
MTRABQ
METAR KABQ 190452Z 34004KT 10SM FEW100 11/M04 A2997 RMK AO2 SLP111
T01111044





000
SAUS45 KABQ 190354
MTRCQC
METAR KCQC 190353Z AUTO 29019KT 10SM CLR 07/M03 A2993 RMK AO2 PK WND
30028/0255 SLP097 T00671033





000
SAUS45 KABQ 190354
MTRTCS
METAR KTCS 190353Z AUTO 28008KT 10SM CLR 14/M04 A2995 RMK AO2 SLP092
T01391044 TSNO





000
SAUS45 KABQ 190354
MTRTCS
METAR KTCS 190353Z AUTO 28008KT 10SM CLR 14/M04 A2995 RMK AO2 SLP092
T01391044 TSNO





000
SAUS45 KABQ 190354
MTRCQC
METAR KCQC 190353Z AUTO 29019KT 10SM CLR 07/M03 A2993 RMK AO2 PK WND
30028/0255 SLP097 T00671033





000
SAUS45 KABQ 190353
MTRABQ
METAR KABQ 190352Z 34004KT 10SM FEW100 13/M04 A2997 RMK AO2 SLP110
T01281044





000
SAUS45 KABQ 190254
MTRTCS
METAR KTCS 190253Z AUTO 33006KT 10SM CLR 17/M04 A2993 RMK AO2 SLP085
T01721044 53014 TSNO





000
SAUS45 KABQ 190254
MTRCQC
METAR KCQC 190253Z AUTO 29023G29KT 10SM CLR 07/M03 A2992 RMK AO2 PK
WND 29036/0154 SLP098 T00721033





000
SAUS45 KABQ 190252
MTRABQ
METAR KABQ 190252Z 33011KT 10SM FEW100 14/M04 A2997 RMK AO2 SLP111
T01391044 51016





000
SAUS45 KABQ 190154
MTRCQC
METAR KCQC 190153Z AUTO 29026G37KT 10SM CLR 08/M03 A2989 RMK AO2 PK
WND 30038/0139 SLP090 T00831033





000
SAUS45 KABQ 190154
MTRTCS
METAR KTCS 190153Z AUTO 32009G19KT 10SM CLR 19/M05 A2991 RMK AO2
SLP076 T01891050 TSNO





000
SAUS45 KABQ 190152
MTRABQ
METAR KABQ 190152Z 33013G23KT 10SM FEW070 FEW160 14/M03 A2995 RMK
AO2 PK WND 31033/0058 SLP107 VIRGA SW ACSL E AND S T01391033





000
SAUS45 KABQ 190054
MTRTCS
METAR KTCS 190053Z AUTO 31012G24KT 10SM FEW110 21/M06 A2989 RMK AO2
SLP070 T02111061 TSNO





000
SAUS45 KABQ 190054
MTRCQC
METAR KCQC 190053Z AUTO 31025G39KT 10SM CLR 10/M04 A2989 RMK AO2 PK
WND 30040/0030 SLP095 T01001044 $





000
SAUS45 KABQ 190054
MTRTCS
METAR KTCS 190053Z AUTO 31012G24KT 10SM FEW110 21/M06 A2989 RMK AO2
SLP070 T02111061 TSNO





000
SAUS45 KABQ 190054
MTRCQC
METAR KCQC 190053Z AUTO 31025G39KT 10SM CLR 10/M04 A2989 RMK AO2 PK
WND 30040/0030 SLP095 T01001044 $





000
SAUS45 KABQ 190052
MTRABQ
METAR KABQ 190052Z 32023G32KT 10SM FEW080 FEW180 16/M03 A2993 RMK
AO2 PK WND 33034/0036 SLP101 VIRGA S-SW T01561033





000
SAUS45 KABQ 190003 COR
MTRCQC
METAR KCQC 182353Z AUTO 30027G36KT 10SM CLR 09/M05 A2990 RMK AO2 PK
WND 30037/2340 SLP099 T00941050 10128 20094 55005 $





000
SAUS45 KABQ 190003 COR
MTRCQC
METAR KCQC 182353Z AUTO 30027G36KT 10SM CLR 09/M05 A2990 RMK AO2 PK
WND 30037/2340 SLP099 T00941050 10128 20094 55005 $





000
SAUS45 KABQ 190002 COR
MTRCQC
METAR KCQC 182353Z AUTO 30027G36KT 10SM CLR 09/M05 A2990 RMK AO2 PK
WND 30037/2340 SLP099 T00941050 10128 20094 55005 $





000
SAUS45 KABQ 190002 COR
MTRCQC
METAR KCQC 182353Z AUTO 30027G36KT 10SM CLR 09/M05 A2990 RMK AO2 PK
WND 30037/2340 SLP099 T00941050 10128 20094 55005 $





000
SAUS45 KABQ 190001 COR
MTRCQC
METAR KCQC 182353Z AUTO 30027G36KT 10SM CLR 09/M05 A2990 RMK AO2 PK
WND 30037/2340 SLP099 T00941050 10128 20094 55005 $





000
SAUS45 KABQ 190001 COR
MTRCQC
METAR KCQC 182353Z AUTO 30027G36KT 10SM CLR 09/M05 A2990 RMK AO2 PK
WND 30037/2340 SLP099 T00941050 10128 20094 55005 $





000
SAUS45 KABQ 182359 COR
MTRCQC
METAR KCQC 182353Z AUTO 30027G36KT 10SM CLR 09/M05 A2990 RMK AO2 PK
WND 30037/2340 SLP099 T00941050 10128 20094 55005 $





000
SAUS45 KABQ 182358 COR
MTRCQC
METAR KCQC 182353Z AUTO 30027G36KT 10SM CLR 09/M05 A2990 RMK AO2 PK
WND 30037/2340 SLP099 T00941050 10128 20094 55005 $





000
SAUS45 KABQ 182358 COR
MTRCQC
METAR KCQC 182353Z AUTO 30027G36KT 10SM CLR 09/M05 A2990 RMK AO2 PK
WND 30037/2340 SLP099 T00941050 10128 20094 55005 $





000
SAUS45 KABQ 182357 COR
MTRTCS
METAR KTCS 182353Z AUTO 32014G21KT 10SM CLR 21/M06 A2989 RMK AO2 PK
WND 31026/2319 SLP066 T02111056 10222 20167 55007 TSNO





000
SAUS45 KABQ 182357 COR
MTRTCS
METAR KTCS 182353Z AUTO 32014G21KT 10SM CLR 21/M06 A2989 RMK AO2 PK
WND 31026/2319 SLP066 T02111056 10222 20167 55007 TSNO





000
SAUS45 KABQ 182356 COR
MTRTCS
METAR KTCS 182353Z AUTO 32014G21KT 10SM CLR 21/M06 A2989 RMK AO2 PK
WND 31026/2319 SLP066 T02111056 10222 20167 55007 TSNO





000
SAUS45 KABQ 182356 COR
MTRCQC
METAR KCQC 182353Z AUTO 30027G36KT 10SM CLR 09/M05 A2990 RMK AO2 PK
WND 30037/2340 SLP099 T00941050 10128 20094 55005 $





000
SAUS45 KABQ 182356 COR
MTRCQC
METAR KCQC 182353Z AUTO 30027G36KT 10SM CLR 09/M05 A2990 RMK AO2 PK
WND 30037/2340 SLP099 T00941050 10128 20094 55005 $





000
SAUS45 KABQ 182356 COR
MTRTCS
METAR KTCS 182353Z AUTO 32014G21KT 10SM CLR 21/M06 A2989 RMK AO2 PK
WND 31026/2319 SLP066 T02111056 10222 20167 55007 TSNO





000
SAUS45 KABQ 182355 COR
MTRCQC
METAR KCQC 182353Z AUTO 30027G36KT 10SM CLR 09/M05 A2990 RMK AO2 PK
WND 30037/2340 SLP099 T00941050 10128 20094 55005 $





000
SAUS45 KABQ 182355 COR
MTRCQC
METAR KCQC 182353Z AUTO 30027G36KT 10SM CLR 09/M05 A2990 RMK AO2 PK
WND 30037/2340 SLP099 T00941050 10128 20094 55005 $





000
SAUS45 KABQ 182354
MTRCQC
METAR KCQC 182353Z AUTO 30027G36KT 10SM CLR 09/M05 A2990 RMK AO2 PK
WND 30037/2340 SLP099 T00941050 10128 20094 55005 $





000
SAUS45 KABQ 182353
MTRABQ
METAR KABQ 182352Z 34018G28KT 10SM SCT070 SCT200 17/M04 A2991 RMK
AO2 PK WND 34029/2338 SLP093 VIRGA S-SW T01671044 10172 20111 55010





000
SAUS45 KABQ 182254
MTRCQC
METAR KCQC 182253Z AUTO 30029G35KT 10SM CLR 12/M08 A2989 RMK AO2 PK
WND 30037/2237 SLP089 T01221083 $





000
SAUS45 KABQ 182254
MTRTCS
METAR KTCS 182253Z AUTO 32018G24KT 10SM BKN110 22/M06 A2988 RMK AO2
SLP065 T02171061 TSNO





000
SAUS45 KABQ 182254
MTRTCS
METAR KTCS 182253Z AUTO 32018G24KT 10SM BKN110 22/M06 A2988 RMK AO2
SLP065 T02171061 TSNO





000
SAUS45 KABQ 182254
MTRCQC
METAR KCQC 182253Z AUTO 30029G35KT 10SM CLR 12/M08 A2989 RMK AO2 PK
WND 30037/2237 SLP089 T01221083 $





000
SAUS45 KABQ 182253
MTRABQ
METAR KABQ 182252Z 34018G23KT 10SM FEW060 SCT075 BKN200 17/M06 A2990
RMK AO2 PK WND 35026/2211 SLP089 VIRGA SW T01671056





000
SAUS45 KABQ 182253
MTRABQ
METAR KABQ 182252Z 34018G23KT 10SM FEW060 SCT075 BKN200 17/M06 A2990
RMK AO2 PK WND 35026/2211 SLP089 VIRGA SW T01671056





000
SAUS45 KABQ 182154
MTRCQC
METAR KCQC 182153Z AUTO 31026G34KT 10SM CLR 12/M08 A2990 RMK AO2 PK
WND 28036/2102 SLP098 T01171083 $





000
SAUS45 KABQ 182154
MTRTCS
METAR KTCS 182153Z AUTO 29012G21KT 10SM BKN110 21/M06 A2989 RMK AO2
SLP068 T02111056 TSNO





000
SAUS45 KABQ 182152
MTRABQ
METAR KABQ 182152Z 32012G21KT 10SM FEW060 SCT075 SCT180 17/M06 A2992
RMK AO2 SLP094 T01721056





000
SAUS45 KABQ 182152
MTRABQ
METAR KABQ 182152Z 32012G21KT 10SM FEW060 SCT075 SCT180 17/M06 A2992
RMK AO2 SLP094 T01721056





000
SAUS45 KABQ 182103 COR
MTRCQC
METAR KCQC 182053Z AUTO 31027G33KT 10SM CLR 12/M08 A2991 RMK AO2 PK
WND 31036/2032 SLP100 T01221083 58010 $





000
SAUS45 KABQ 182102 COR
MTRCQC
METAR KCQC 182053Z AUTO 31027G33KT 10SM CLR 12/M08 A2991 RMK AO2 PK
WND 31036/2032 SLP100 T01221083 58010 $





000
SAUS45 KABQ 182101 COR
MTRCQC
METAR KCQC 182053Z AUTO 31027G33KT 10SM CLR 12/M08 A2991 RMK AO2 PK
WND 31036/2032 SLP100 T01221083 58010 $





000
SAUS45 KABQ 182059 COR
MTRCQC
METAR KCQC 182053Z AUTO 31027G33KT 10SM CLR 12/M08 A2991 RMK AO2 PK
WND 31036/2032 SLP100 T01221083 58010 $





000
SAUS45 KABQ 182058 COR
MTRCQC
METAR KCQC 182053Z AUTO 31027G33KT 10SM CLR 12/M08 A2991 RMK AO2 PK
WND 31036/2032 SLP100 T01221083 58010 $





000
SAUS45 KABQ 182056 COR
MTRCQC
METAR KCQC 182053Z AUTO 31027G33KT 10SM CLR 12/M08 A2991 RMK AO2 PK
WND 31036/2032 SLP100 T01221083 58010 $





000
SAUS45 KABQ 182056 COR
MTRCQC
METAR KCQC 182053Z AUTO 31027G33KT 10SM CLR 12/M08 A2991 RMK AO2 PK
WND 31036/2032 SLP100 T01221083 58010 $





000
SAUS45 KABQ 182055 COR
MTRCQC
METAR KCQC 182053Z AUTO 31027G33KT 10SM CLR 12/M08 A2991 RMK AO2 PK
WND 31036/2032 SLP100 T01221083 58010 $





000
SAUS45 KABQ 182054
MTRTCS
METAR KTCS 182053Z AUTO 30015G27KT 10SM OVC100 21/M05 A2991 RMK AO2
PK WND 30027/2046 SLP077 T02111050 58022 TSNO





000
SAUS45 KABQ 182054
MTRCQC
METAR KCQC 182053Z AUTO 31027G33KT 10SM CLR 12/M08 A2991 RMK AO2 PK
WND 31036/2032 SLP100 T01221083 58010 $





000
SAUS45 KABQ 182054
MTRTCS
METAR KTCS 182053Z AUTO 30015G27KT 10SM OVC100 21/M05 A2991 RMK AO2
PK WND 30027/2046 SLP077 T02111050 58022 TSNO





000
SAUS45 KABQ 182052
MTRABQ
METAR KABQ 182052Z 35010G17KT 10SM SCT075 SCT170 BKN200 16/M03 A2995
RMK AO2 PK WND 34027/2031 SLP101 T01611033 56020





000
SAUS45 KABQ 181958 COR
MTRCQC
METAR KCQC 181953Z AUTO 30021G31KT 10SM FEW050 12/M04 A2993 RMK AO2
PK WND 30032/1929 SLP104 T01171044 $





000
SAUS45 KABQ 181958 COR
MTRCQC
METAR KCQC 181953Z AUTO 30021G31KT 10SM FEW050 12/M04 A2993 RMK AO2
PK WND 30032/1929 SLP104 T01171044 $





000
SAUS45 KABQ 181956 COR
MTRCQC
METAR KCQC 181953Z AUTO 30021G31KT 10SM FEW050 12/M04 A2993 RMK AO2
PK WND 30032/1929 SLP104 T01171044 $





000
SAUS45 KABQ 181955 COR
MTRCQC
METAR KCQC 181953Z AUTO 30021G31KT 10SM FEW050 12/M04 A2993 RMK AO2
PK WND 30032/1929 SLP104 T01171044 $





000
SAUS45 KABQ 181954
MTRCQC
METAR KCQC 181953Z AUTO 30021G31KT 10SM FEW050 12/M04 A2993 RMK AO2
PK WND 30032/1929 SLP104 T01171044 $





000
SAUS45 KABQ 181954
MTRTCS
METAR KTCS 181953Z AUTO 30020G25KT 10SM BKN100 21/M04 A2994 RMK AO2
SLP080 T02111039 TSNO





000
SAUS45 KABQ 181952
MTRABQ
METAR KABQ 181952Z 33013G22KT 10SM SCT065 SCT200 14/M04 A2997 RMK
AO2 SLP111 T01441039





000
SAUS45 KABQ 181902 COR
MTRCQC
METAR KCQC 181853Z AUTO 30019G29KT 10SM FEW037 11/M04 A2994 RMK AO2
PK WND 30035/1800 SLP107 T01061039 $





000
SAUS45 KABQ 181902 COR
MTRCQC
METAR KCQC 181853Z AUTO 30019G29KT 10SM FEW037 11/M04 A2994 RMK AO2
PK WND 30035/1800 SLP107 T01061039 $





000
SAUS45 KABQ 181901 COR
MTRCQC
METAR KCQC 181853Z AUTO 30019G29KT 10SM FEW037 11/M04 A2994 RMK AO2
PK WND 30035/1800 SLP107 T01061039 $





000
SAUS45 KABQ 181859 COR
MTRCQC
METAR KCQC 181853Z AUTO 30019G29KT 10SM FEW037 11/M04 A2994 RMK AO2
PK WND 30035/1800 SLP107 T01061039 $





000
SAUS45 KABQ 181859 COR
MTRCQC
METAR KCQC 181853Z AUTO 30019G29KT 10SM FEW037 11/M04 A2994 RMK AO2
PK WND 30035/1800 SLP107 T01061039 $





000
SAUS45 KABQ 181858 COR
MTRCQC
METAR KCQC 181853Z AUTO 30019G29KT 10SM FEW037 11/M04 A2994 RMK AO2
PK WND 30035/1800 SLP107 T01061039 $





000
SAUS45 KABQ 181856 COR
MTRCQC
METAR KCQC 181853Z AUTO 30019G29KT 10SM FEW037 11/M04 A2994 RMK AO2
PK WND 30035/1800 SLP107 T01061039 $





000
SAUS45 KABQ 181856 COR
MTRCQC
METAR KCQC 181853Z AUTO 30019G29KT 10SM FEW037 11/M04 A2994 RMK AO2
PK WND 30035/1800 SLP107 T01061039 $





000
SAUS45 KABQ 181855 COR
MTRCQC
METAR KCQC 181853Z AUTO 30019G29KT 10SM FEW037 11/M04 A2994 RMK AO2
PK WND 30035/1800 SLP107 T01061039 $





000
SAUS45 KABQ 181854
MTRCQC
METAR KCQC 181853Z AUTO 30019G29KT 10SM FEW037 11/M04 A2994 RMK AO2
PK WND 30035/1800 SLP107 T01061039 $





000
SAUS45 KABQ 181854
MTRTCS
METAR KTCS 181853Z AUTO 28014KT 10SM OVC090 18/M03 A2996 RMK AO2
SLP094 T01781033 TSNO





000
SAUS45 KABQ 181854
MTRCQC
METAR KCQC 181853Z AUTO 30019G29KT 10SM FEW037 11/M04 A2994 RMK AO2
PK WND 30035/1800 SLP107 T01061039 $





000
SAUS45 KABQ 181854
MTRTCS
METAR KTCS 181853Z AUTO 28014KT 10SM OVC090 18/M03 A2996 RMK AO2
SLP094 T01781033 TSNO





000
SAUS45 KABQ 181853
MTRABQ
METAR KABQ 181852Z 32007G15KT 10SM SCT055 SCT200 13/M03 A2999 RMK
AO2 SLP123 MTN TOP OBSC NE T01281028





000
SAUS45 KABQ 181758 COR
MTRCQC
METAR KCQC 181753Z AUTO 30021G30KT 10SM FEW029 SCT038 09/M03 A2995
RMK AO2 PK WND 30035/1737 SLP107 60000 T00941028 10100 21022 58004 $





000
SAUS45 KABQ 181758 COR
MTRCQC
METAR KCQC 181753Z AUTO 30021G30KT 10SM FEW029 SCT038 09/M03 A2995
RMK AO2 PK WND 30035/1737 SLP107 60000 T00941028 10100 21022 58004 $





000
SAUS45 KABQ 181757
MTRABQ
METAR KABQ 181752Z COR 01008KT 10SM SCT045 SCT065 BKN200 11/M03
A3001 RMK AO2 SLP134 MTN TOP OBSC NE T01111028 10117 20028 58002





000
SAUS45 KABQ 181757
MTRABQ
METAR KABQ 181752Z COR 01008KT 10SM SCT045 SCT065 BKN200 11/M03
A3001 RMK AO2 SLP134 MTN TOP OBSC NE T01111028 10117 20028 58002





000
SAUS45 KABQ 181756 COR
MTRCQC
METAR KCQC 181753Z AUTO 30021G30KT 10SM FEW029 SCT038 09/M03 A2995
RMK AO2 PK WND 30035/1737 SLP107 60000 T00941028 10100 21022 58004 $





000
SAUS45 KABQ 181756 COR
MTRCQC
METAR KCQC 181753Z AUTO 30021G30KT 10SM FEW029 SCT038 09/M03 A2995
RMK AO2 PK WND 30035/1737 SLP107 60000 T00941028 10100 21022 58004 $





000
SAUS45 KABQ 181755 COR
MTRCQC
METAR KCQC 181753Z AUTO 30021G30KT 10SM FEW029 SCT038 09/M03 A2995
RMK AO2 PK WND 30035/1737 SLP107 60000 T00941028 10100 21022 58004 $





000
SAUS45 KABQ 181755 COR
MTRCQC
METAR KCQC 181753Z AUTO 30021G30KT 10SM FEW029 SCT038 09/M03 A2995
RMK AO2 PK WND 30035/1737 SLP107 60000 T00941028 10100 21022 58004 $





000
SAUS45 KABQ 181755
MTRCQC
METAR KCQC 181753Z AUTO 30021G30KT 10SM FEW029 SCT038 09/M03 A2995
RMK AO2 PK WND 30035/1737 SLP107 60000 T00941028 10100 21022 58004 $





000
SAUS45 KABQ 181754
MTRTCS
METAR KTCS 181753Z AUTO 32012G19KT 10SM OVC085 17/M03 A2998 RMK AO2
PK WND 30036/1659 SLP104 T01721033 10183 20044 56011 TSNO





000
SAUS45 KABQ 181753
MTRABQ
METAR KABQ 181752Z 01008KT 10SM SCT045 SCT065 BKN200 11/M03 A3001
RMK AO2 SLP134 MTN TOPS OBSC NE-E T01111028 10117 20028 58002





000
SAUS45 KABQ 181658 COR
MTRCQC
METAR KCQC 181653Z AUTO 30021G28KT 10SM SCT030 BKN037 07/M02 A2996
RMK AO2 PK WND 29030/1628 SLP114 T00721022 $





000
SAUS45 KABQ 181658 COR
MTRCQC
METAR KCQC 181653Z AUTO 30021G28KT 10SM SCT030 BKN037 07/M02 A2996
RMK AO2 PK WND 29030/1628 SLP114 T00721022 $





000
SAUS45 KABQ 181656 COR
MTRCQC
METAR KCQC 181653Z AUTO 30021G28KT 10SM SCT030 BKN037 07/M02 A2996
RMK AO2 PK WND 29030/1628 SLP114 T00721022 $





000
SAUS45 KABQ 181656 COR
MTRCQC
METAR KCQC 181653Z AUTO 30021G28KT 10SM SCT030 BKN037 07/M02 A2996
RMK AO2 PK WND 29030/1628 SLP114 T00721022 $





000
SAUS45 KABQ 181655
MTRCQC
METAR KCQC 181653Z AUTO 30021G28KT 10SM SCT030 BKN037 07/M02 A2996
RMK AO2 PK WND 29030/1628 SLP114 T00721022 $





000
SAUS45 KABQ 181655
MTRCQC
METAR KCQC 181653Z AUTO 30021G28KT 10SM SCT030 BKN037 07/M02 A2996
RMK AO2 PK WND 29030/1628 SLP114 T00721022 $





000
SAUS45 KABQ 181655 COR
MTRCQC
METAR KCQC 181653Z AUTO 30021G28KT 10SM SCT030 BKN037 07/M02 A2996
RMK AO2 PK WND 29030/1628 SLP114 T00721022 $





000
SAUS45 KABQ 181655 COR
MTRCQC
METAR KCQC 181653Z AUTO 30021G28KT 10SM SCT030 BKN037 07/M02 A2996
RMK AO2 PK WND 29030/1628 SLP114 T00721022 $





000
SAUS45 KABQ 181654
MTRTCS
METAR KTCS 181653Z AUTO 28008KT 10SM BKN090 17/M05 A2999 RMK AO2
SLP106 T01721050 TSNO





000
SAUS45 KABQ 181654
MTRTCS
METAR KTCS 181653Z AUTO 28008KT 10SM BKN090 17/M05 A2999 RMK AO2
SLP106 T01721050 TSNO





000
SAUS45 KABQ 181652
MTRABQ
METAR KABQ 181652Z 34009KT 10SM SCT042 SCT065 BKN180 10/M02 A3002
RMK AO2 SLP136 MTN TOPS OBSC NE-E T01001017





000
SAUS45 KABQ 181652
MTRABQ
METAR KABQ 181652Z 34009KT 10SM SCT042 SCT065 BKN180 10/M02 A3002
RMK AO2 SLP136 MTN TOPS OBSC NE-E T01001017





000
SAUS45 KABQ 181603 COR
MTRCQC
METAR KCQC 181553Z AUTO 27020G26KT 10SM OVC030 06/M03 A2997 RMK AO2
PK WND 27026/1549 RAB32E43SNB05E29 SLP120 P0000 T00561028 $





000
SAUS45 KABQ 181603 COR
MTRCQC
METAR KCQC 181553Z AUTO 27020G26KT 10SM OVC030 06/M03 A2997 RMK AO2
PK WND 27026/1549 RAB32E43SNB05E29 SLP120 P0000 T00561028 $





000
SAUS45 KABQ 181602 COR
MTRCQC
METAR KCQC 181553Z AUTO 27020G26KT 10SM OVC030 06/M03 A2997 RMK AO2
PK WND 27026/1549 RAB32E43SNB05E29 SLP120 P0000 T00561028 $





000
SAUS45 KABQ 181559 COR
MTRCQC
METAR KCQC 181553Z AUTO 27020G26KT 10SM OVC030 06/M03 A2997 RMK AO2
PK WND 27026/1549 RAB32E43SNB05E29 SLP120 P0000 T00561028 $





000
SAUS45 KABQ 181558 COR
MTRCQC
METAR KCQC 181553Z AUTO 27020G26KT 10SM OVC030 06/M03 A2997 RMK AO2
PK WND 27026/1549 RAB32E43SNB05E29 SLP120 P0000 T00561028 $





000
SAUS45 KABQ 181556 COR
MTRCQC
METAR KCQC 181553Z AUTO 27020G26KT 10SM OVC030 06/M03 A2997 RMK AO2
PK WND 27026/1549 RAB32E43SNB05E29 SLP120 P0000 T00561028 $





000
SAUS45 KABQ 181556 COR
MTRCQC
METAR KCQC 181553Z AUTO 27020G26KT 10SM OVC030 06/M03 A2997 RMK AO2
PK WND 27026/1549 RAB32E43SNB05E29 SLP120 P0000 T00561028 $





000
SAUS45 KABQ 181555 COR
MTRCQC
METAR KCQC 181553Z AUTO 27020G26KT 10SM OVC030 06/M03 A2997 RMK AO2
PK WND 27026/1549 RAB32E43SNB05E29 SLP120 P0000 T00561028 $





000
SAUS45 KABQ 181554
MTRTCS
METAR KTCS 181553Z AUTO 15009KT 10SM CLR 14/M08 A3001 RMK AO2 SLP115
T01391078 TSNO





000
SAUS45 KABQ 181554
MTRCQC
METAR KCQC 181553Z AUTO 27020G26KT 10SM OVC030 06/M03 A2997 RMK AO2
PK WND 27026/1549 RAB32E43SNB05E29 SLP120 P0000 T00561028 $





000
SAUS45 KABQ 181553
MTRABQ
METAR KABQ 181552Z 33007KT 280V020 10SM SCT050 SCT070 BKN150 09/M01
A3003 RMK AO2 SLP139 MTN TOPS OBSC NE T00891011





000
SAUS45 KABQ 181501 COR
MTRCQC
METAR KCQC 181453Z AUTO 28014KT 10SM FEW041 BKN055 OVC070 03/M03
A2997 RMK AO2 SLP129 T00331028 53004





000
SAUS45 KABQ 181459 COR
MTRCQC
METAR KCQC 181453Z AUTO 28014KT 10SM FEW041 BKN055 OVC070 03/M03
A2997 RMK AO2 SLP129 T00331028 53004





000
SAUS45 KABQ 181458 COR
MTRCQC
METAR KCQC 181453Z AUTO 28014KT 10SM FEW041 BKN055 OVC070 03/M03
A2997 RMK AO2 SLP129 T00331028 53004





000
SAUS45 KABQ 181456 COR
MTRCQC
METAR KCQC 181453Z AUTO 28014KT 10SM FEW041 BKN055 OVC070 03/M03
A2997 RMK AO2 SLP129 T00331028 53004





000
SAUS45 KABQ 181456 COR
MTRCQC
METAR KCQC 181453Z AUTO 28014KT 10SM FEW041 BKN055 OVC070 03/M03
A2997 RMK AO2 SLP129 T00331028 53004





000
SAUS45 KABQ 181455 COR
MTRCQC
METAR KCQC 181453Z AUTO 28014KT 10SM FEW041 BKN055 OVC070 03/M03
A2997 RMK AO2 SLP129 T00331028 53004





000
SAUS45 KABQ 181455 COR
MTRCQC
METAR KCQC 181453Z AUTO 28014KT 10SM FEW041 BKN055 OVC070 03/M03
A2997 RMK AO2 SLP129 T00331028 53004





000
SAUS45 KABQ 181454
MTRCQC
METAR KCQC 181453Z AUTO 28014KT 10SM FEW041 BKN055 OVC070 03/M03
A2997 RMK AO2 SLP129 T00331028 53004





000
SAUS45 KABQ 181454
MTRCQC
METAR KCQC 181453Z AUTO 28014KT 10SM FEW041 BKN055 OVC070 03/M03
A2997 RMK AO2 SLP129 T00331028 53004





000
SAUS45 KABQ 181454
MTRTCS
METAR KTCS 181453Z AUTO 00000KT 10SM CLR 11/M09 A3002 RMK AO2 SLP119
T01061089 50006 TSNO





000
SAUS45 KABQ 181452
MTRABQ
METAR KABQ 181452Z VRB03KT 10SM FEW045 BKN050 BKN065 07/M02 A3002
RMK AO2 SLP139 MTN OBSC NE SHSN DSNT NE T00721017 51009





000
SAUS45 KABQ 181452
MTRABQ
METAR KABQ 181452Z VRB03KT 10SM FEW045 BKN050 BKN065 07/M02 A3002
RMK AO2 SLP139 MTN OBSC NE SHSN DSNT NE T00721017 51009





000
SAUS45 KABQ 181354
MTRTCS
METAR KTCS 181353Z AUTO 26007KT 10SM CLR 08/M09 A3002 RMK AO2 SLP122
T00831089 TSNO





000
SAUS45 KABQ 181354
MTRTCS
METAR KTCS 181353Z AUTO 26007KT 10SM CLR 08/M09 A3002 RMK AO2 SLP122
T00831089 TSNO





000
SAUS45 KABQ 181354
MTRCQC
METAR KCQC 181353Z AUTO 29010KT 10SM FEW039 BKN047 OVC060 01/M03
A2997 RMK AO2 SLP136 T00111033





000
SAUS45 KABQ 181354
MTRCQC
METAR KCQC 181353Z AUTO 29010KT 10SM FEW039 BKN047 OVC060 01/M03
A2997 RMK AO2 SLP136 T00111033





000
SAUS45 KABQ 181352
MTRABQ
METAR KABQ 181352Z 03005KT 10SM BKN050 BKN065 06/M02 A3001 RMK AO2
SLP139 MTN TOP OBSC NE T00561022





000
SAUS45 KABQ 181352
MTRABQ
METAR KABQ 181352Z 03005KT 10SM BKN050 BKN065 06/M02 A3001 RMK AO2
SLP139 MTN TOP OBSC NE T00561022





000
SAUS45 KABQ 181254
MTRTCS
METAR KTCS 181253Z AUTO 26006KT 10SM CLR 05/M08 A3002 RMK AO2 SLP121
T00501083 TSNO





000
SAUS45 KABQ 181254
MTRCQC
METAR KCQC 181253Z AUTO 28006KT 10SM CLR M02/M04 A2995 RMK AO2
SLP126 T10171039





000
SAUS45 KABQ 181254
MTRCQC
METAR KCQC 181253Z AUTO 28006KT 10SM CLR M02/M04 A2995 RMK AO2
SLP126 T10171039





000
SAUS45 KABQ 181254
MTRTCS
METAR KTCS 181253Z AUTO 26006KT 10SM CLR 05/M08 A3002 RMK AO2 SLP121
T00501083 TSNO





000
SAUS45 KABQ 181253
MTRABQ
METAR KABQ 181252Z COR 00000KT 10SM BKN055 BKN150  04/M03 A3000 RMK
AO2 SLP135 T00391033





000
SAUS45 KABQ 181253
MTRABQ
METAR KABQ 181252Z COR 00000KT 10SM BKN055 BKN150  04/M03 A3000 RMK
AO2 SLP135 T00391033





000
SAUS45 KABQ 181252
MTRABQ
METAR KABQ 181252Z 00000KT 10SM OVC055 04/M03 A3000 RMK AO2 SLP135
T00391033





000
SAUS45 KABQ 181252
MTRABQ
METAR KABQ 181252Z 00000KT 10SM OVC055 04/M03 A3000 RMK AO2 SLP135
T00391033





000
SAUS45 KABQ 181154
MTRCQC
METAR KCQC 181153Z AUTO 30007KT 10SM CLR M02/M04 A2996 RMK AO2
SLP124 T10221044 10022 21039 55007





000
SAUS45 KABQ 181154
MTRCQC
METAR KCQC 181153Z AUTO 30007KT 10SM CLR M02/M04 A2996 RMK AO2
SLP124 T10221044 10022 21039 55007





000
SAUS45 KABQ 181154
MTRTCS
METAR KTCS 181153Z AUTO 32009KT 10SM CLR 07/M08 A3000 RMK AO2 SLP112
T00721083 10100 20044 56004 TSNO





000
SAUS45 KABQ 181154
MTRTCS
METAR KTCS 181153Z AUTO 32009KT 10SM CLR 07/M08 A3000 RMK AO2 SLP112
T00721083 10100 20044 56004 TSNO





000
SAUS45 KABQ 181153
MTRABQ
METAR KABQ 181152Z 00000KT 10SM BKN060 BKN120 OVC170 03/M04 A2999
RMK AO2 SLP133 T00281044 10067 20017 56005





000
SAUS45 KABQ 181153
MTRABQ
METAR KABQ 181152Z 00000KT 10SM BKN060 BKN120 OVC170 03/M04 A2999
RMK AO2 SLP133 T00281044 10067 20017 56005





000
SAUS45 KABQ 181054
MTRTCS
METAR KTCS 181053Z AUTO 27003KT 10SM CLR 06/M08 A3000 RMK AO2 SLP114
T00611078 TSNO





000
SAUS45 KABQ 181054
MTRCQC
METAR KCQC 181053Z AUTO 26006KT 10SM CLR M03/M06 A2995 RMK AO2
SLP117 T10281056





000
SAUS45 KABQ 181053
MTRABQ
METAR KABQ 181052Z 15005KT 10SM FEW060 BKN075 BKN160 03/M04 A2999
RMK AO2 SLP137 T00281039





000
SAUS45 KABQ 180954
MTRCQC
METAR KCQC 180953Z AUTO 29007KT 10SM CLR M03/M05 A2996 RMK AO2
SLP129 T10331050





000
SAUS45 KABQ 180954
MTRTCS
METAR KTCS 180953Z AUTO 31006KT 10SM CLR 07/M08 A3000 RMK AO2 SLP113
T00671083 TSNO





000
SAUS45 KABQ 180953
MTRABQ
METAR KABQ 180952Z 15006KT 10SM BKN070 OVC170 02/M04 A3000 RMK AO2
SLP140 T00221044





000
SAUS45 KABQ 180854
MTRCQC
METAR KCQC 180853Z AUTO 30008KT 10SM CLR M02/M05 A2998 RMK AO2
SLP134 T10221050 58013





000
SAUS45 KABQ 180854
MTRTCS
METAR KTCS 180853Z AUTO 30007KT 10SM CLR 07/M08 A3001 RMK AO2 SLP120
T00671083 58003 TSNO





000
SAUS45 KABQ 180852
MTRABQ
METAR KABQ 180852Z 00000KT 10SM FEW080 SCT170 06/M02 A3001 RMK AO2
SLP132 T00561017 58014





000
SAUS45 KABQ 180852
MTRABQ
METAR KABQ 180852Z 00000KT 10SM FEW080 SCT170 06/M02 A3001 RMK AO2
SLP132 T00561017 58014





000
SAUS45 KABQ 180755
MTRCQC
METAR KCQC 180753Z AUTO 29009KT 10SM CLR M02/M05 A3000 RMK AO2
SLP145 T10171050





000
SAUS45 KABQ 180755
MTRTCS
METAR KTCS 180753Z AUTO 31007KT 10SM CLR 09/M08 A3003 RMK AO2 SLP124
T00941083 TSNO





000
SAUS45 KABQ 180752
MTRABQ
METAR KABQ 180752Z 34003KT 10SM BKN190 06/M02 A3003 RMK AO2 SLP141
T00611017





000
SAUS45 KABQ 180654
MTRCQC
METAR KCQC 180653Z AUTO 30011KT 10SM CLR 00/M04 A3001 RMK AO2 SLP141
T00001044 401061061





000
SAUS45 KABQ 180654
MTRCQC
METAR KCQC 180653Z AUTO 30011KT 10SM CLR 00/M04 A3001 RMK AO2 SLP141
T00001044 401061061





000
SAUS45 KABQ 180654
MTRTCS
METAR KTCS 180653Z AUTO 31008KT 10SM CLR 09/M09 A3004 RMK AO2 SLP126
T00941089 401890017 TSNO





000
SAUS45 KABQ 180652
MTRABQ
METAR KABQ 180652Z 36006KT 10SM FEW090 FEW130 BKN200 06/M02 A3005
RMK AO2 SLP145 T00611017 401281011





000
SAUS45 KABQ 180652
MTRABQ
METAR KABQ 180652Z 36006KT 10SM FEW090 FEW130 BKN200 06/M02 A3005
RMK AO2 SLP145 T00611017 401281011





000
SAUS45 KABQ 180554
MTRCQC
METAR KCQC 180553Z AUTO 32013KT 10SM FEW120 02/M05 A3003 RMK AO2
SLP139 T00221050 10089 20022 58004





000
SAUS45 KABQ 180554
MTRTCS
METAR KTCS 180553Z AUTO 31007KT 10SM CLR 09/M09 A3003 RMK AO2 SLP127
T00941094 10189 20094 50008 TSNO





000
SAUS45 KABQ 180553
MTRABQ
METAR KABQ 180552Z 36010KT 10SM BKN090 OVC150 07/M02 A3005 RMK AO2
SLP151 T00671022 10111 20067 50002





000
SAUS45 KABQ 180454
MTRCQC
METAR KCQC 180453Z AUTO 31014KT 10SM SCT100 BKN120 03/M06 A3004 RMK
AO2 SLP146 T00281061





000
SAUS45 KABQ 180454
MTRTCS
METAR KTCS 180453Z AUTO 29005KT 10SM CLR 10/M09 A3003 RMK AO2 SLP128
T01001094 TSNO





000
SAUS45 KABQ 180453
MTRABQ
METAR KABQ 180452Z 36010KT 10SM BKN090 OVC130 08/M04 A3006 RMK AO2
SLP154 T00781039





000
SAUS45 KABQ 180354
MTRTCS
METAR KTCS 180353Z AUTO 29003KT 10SM CLR 11/M09 A3003 RMK AO2 SLP130
T01061089 TSNO





000
SAUS45 KABQ 180354
MTRCQC
METAR KCQC 180353Z AUTO 31009KT 10SM BKN090 OVC100 04/M08 A3005 RMK
AO2 SLP149 T00391083





000
SAUS45 KABQ 180352
MTRABQ
METAR KABQ 180352Z 01011KT 10SM BKN090 BKN130 09/M06 A3006 RMK AO2
SLP157 VIRGA NW-NE T00891056





000
SAUS45 KABQ 180254
MTRTCS
METAR KTCS 180253Z AUTO 30010KT 10SM CLR 14/M08 A3000 RMK AO2 SLP119
T01441083 53023 TSNO





000
SAUS45 KABQ 180254
MTRTCS
METAR KTCS 180253Z AUTO 30010KT 10SM CLR 14/M08 A3000 RMK AO2 SLP119
T01441083 53023 TSNO





000
SAUS45 KABQ 180254
MTRCQC
METAR KCQC 180253Z AUTO 30009KT 10SM BKN110 03/M09 A3004 RMK AO2
SLP151 T00331089 53016





000
SAUS45 KABQ 180252
MTRABQ
METAR KABQ 180252Z 34007KT 10SM BKN090 OVC150 09/M06 A3005 RMK AO2
SLP156 VIRGA NW-NE T00941061 53010





000
SAUS45 KABQ 180252
MTRABQ
METAR KABQ 180252Z 34007KT 10SM BKN090 OVC150 09/M06 A3005 RMK AO2
SLP156 VIRGA NW-NE T00941061 53010





000
SAUS45 KABQ 180154
MTRTCS
METAR KTCS 180153Z AUTO 31012KT 10SM FEW110 16/M09 A2997 RMK AO2
SLP110 T01611089 TSNO





000
SAUS45 KABQ 180154
MTRCQC
METAR KCQC 180153Z AUTO 31009KT 10SM CLR 03/M09 A3002 RMK AO2 SLP156
T00331089





000
SAUS45 KABQ 180154
MTRCQC
METAR KCQC 180153Z AUTO 31009KT 10SM CLR 03/M09 A3002 RMK AO2 SLP156
T00331089





000
SAUS45 KABQ 180153
MTRABQ
METAR KABQ 180152Z 33014KT 10SM BKN100 BKN150 10/M08 A3003 RMK AO2
SLP151 SHRA DSNT NW T01001083





000
SAUS45 KABQ 180153
MTRABQ
METAR KABQ 180152Z 33014KT 10SM BKN100 BKN150 10/M08 A3003 RMK AO2
SLP151 SHRA DSNT NW T01001083





000
SAUS45 KABQ 180054
MTRTCS
METAR KTCS 180053Z AUTO 30010KT 10SM CLR 18/M12 A2993 RMK AO2 WSHFT
0038 SLP096 T01831122 TSNO





000
SAUS45 KABQ 180054
MTRCQC
METAR KCQC 180053Z AUTO 30017KT 10SM SCT110 07/M09 A3000 RMK AO2 PK
WND 30029/0020 SLP158 T00721094





000
SAUS45 KABQ 180054
MTRTCS
METAR KTCS 180053Z AUTO 30010KT 10SM CLR 18/M12 A2993 RMK AO2 WSHFT
0038 SLP096 T01831122 TSNO





000
SAUS45 KABQ 180054
MTRCQC
METAR KCQC 180053Z AUTO 30017KT 10SM SCT110 07/M09 A3000 RMK AO2 PK
WND 30029/0020 SLP158 T00721094





000
SAUS45 KABQ 180053
MTRABQ
METAR KABQ 180052Z 33010KT 10SM FEW060 BKN090 BKN150 11/M07 A3001
RMK AO2 SLP144 VIRGA E-S T01111072





000
SAUS45 KABQ 180053
MTRABQ
METAR KABQ 180052Z 33010KT 10SM FEW060 BKN090 BKN150 11/M07 A3001
RMK AO2 SLP144 VIRGA E-S T01111072





000
SAUS45 KABQ 172358 COR
MTRCQC
METAR KCQC 172353Z AUTO 29020G28KT 10SM BKN090 08/M12 A2999 RMK AO2
PK WND 29028/2347 SLP138 T00831117 10106 20061 55008





000
SAUS45 KABQ 172358 COR
MTRCQC
METAR KCQC 172353Z AUTO 29020G28KT 10SM BKN090 08/M12 A2999 RMK AO2
PK WND 29028/2347 SLP138 T00831117 10106 20061 55008





000
SAUS45 KABQ 172356 COR
MTRCQC
METAR KCQC 172353Z AUTO 29020G28KT 10SM BKN090 08/M12 A2999 RMK AO2
PK WND 29028/2347 SLP138 T00831117 10106 20061 55008





000
SAUS45 KABQ 172355 COR
MTRCQC
METAR KCQC 172353Z AUTO 29020G28KT 10SM BKN090 08/M12 A2999 RMK AO2
PK WND 29028/2347 SLP138 T00831117 10106 20061 55008





000
SAUS45 KABQ 172354
MTRTCS
METAR KTCS 172353Z AUTO 34007G21KT 300V010 10SM CLR 18/M13 A2992 RMK
AO2 SLP092 T01831133 10189 20128 56016 TSNO





000
SAUS45 KABQ 172354
MTRCQC
METAR KCQC 172353Z AUTO 29020G28KT 10SM BKN090 08/M12 A2999 RMK AO2
PK WND 29028/2347 SLP138 T00831117 10106 20061 55008





000
SAUS45 KABQ 172354
MTRCQC
METAR KCQC 172353Z AUTO 29020G28KT 10SM BKN090 08/M12 A2999 RMK AO2
PK WND 29028/2347 SLP138 T00831117 10106 20061 55008





000
SAUS45 KABQ 172354
MTRTCS
METAR KTCS 172353Z AUTO 34007G21KT 300V010 10SM CLR 18/M13 A2992 RMK
AO2 SLP092 T01831133 10189 20128 56016 TSNO





000
SAUS45 KABQ 172353
MTRABQ
METAR KABQ 172352Z 33010KT 10SM FEW060 SCT080 BKN110 BKN150 11/M07
A3001 RMK AO2 SLP145 VIRGA ALQDS T01111067 10128 20094 55004





000
SAUS45 KABQ 172303 COR
MTRCQC
METAR KCQC 172253Z AUTO 27015G25KT 10SM SCT080 BKN095 11/M13 A2998
RMK AO2 PK WND 25026/2207 SLP128 T01061128





000
SAUS45 KABQ 172302 COR
MTRCQC
METAR KCQC 172253Z AUTO 27015G25KT 10SM SCT080 BKN095 11/M13 A2998
RMK AO2 PK WND 25026/2207 SLP128 T01061128





000
SAUS45 KABQ 172301 COR
MTRCQC
METAR KCQC 172253Z AUTO 27015G25KT 10SM SCT080 BKN095 11/M13 A2998
RMK AO2 PK WND 25026/2207 SLP128 T01061128





000
SAUS45 KABQ 172259 COR
MTRCQC
METAR KCQC 172253Z AUTO 27015G25KT 10SM SCT080 BKN095 11/M13 A2998
RMK AO2 PK WND 25026/2207 SLP128 T01061128





000
SAUS45 KABQ 172258 COR
MTRCQC
METAR KCQC 172253Z AUTO 27015G25KT 10SM SCT080 BKN095 11/M13 A2998
RMK AO2 PK WND 25026/2207 SLP128 T01061128





000
SAUS45 KABQ 172257 COR
MTRCQC
METAR KCQC 172253Z AUTO 27015G25KT 10SM SCT080 BKN095 11/M13 A2998
RMK AO2 PK WND 25026/2207 SLP128 T01061128





000
SAUS45 KABQ 172256 COR
MTRCQC
METAR KCQC 172253Z AUTO 27015G25KT 10SM SCT080 BKN095 11/M13 A2998
RMK AO2 PK WND 25026/2207 SLP128 T01061128





000
SAUS45 KABQ 172256 COR
MTRCQC
METAR KCQC 172253Z AUTO 27015G25KT 10SM SCT080 BKN095 11/M13 A2998
RMK AO2 PK WND 25026/2207 SLP128 T01061128





000
SAUS45 KABQ 172255 COR
MTRCQC
METAR KCQC 172253Z AUTO 27015G25KT 10SM SCT080 BKN095 11/M13 A2998
RMK AO2 PK WND 25026/2207 SLP128 T01061128





000
SAUS45 KABQ 172255 COR
MTRCQC
METAR KCQC 172253Z AUTO 27015G25KT 10SM SCT080 BKN095 11/M13 A2998
RMK AO2 PK WND 25026/2207 SLP128 T01061128





000
SAUS45 KABQ 172254
MTRCQC
METAR KCQC 172253Z AUTO 27015G25KT 10SM SCT080 BKN095 11/M13 A2998
RMK AO2 PK WND 25026/2207 SLP128 T01061128





000
SAUS45 KABQ 172254
MTRTCS
METAR KTCS 172253Z AUTO 16011KT 10SM FEW120 18/M13 A2993 RMK AO2
SLP092 T01831133 TSNO





000
SAUS45 KABQ 172254
MTRCQC
METAR KCQC 172253Z AUTO 27015G25KT 10SM SCT080 BKN095 11/M13 A2998
RMK AO2 PK WND 25026/2207 SLP128 T01061128





000
SAUS45 KABQ 172254
MTRTCS
METAR KTCS 172253Z AUTO 16011KT 10SM FEW120 18/M13 A2993 RMK AO2
SLP092 T01831133 TSNO





000
SAUS45 KABQ 172253
MTRABQ
METAR KABQ 172252Z 18008G17KT 10SM SCT050 BKN075 BKN120 11/M08 A3001
RMK AO2 PK WND 28029/2241 SLP147 VIRGA ALQDS T01061078





000
SAUS45 KABQ 172253
MTRABQ
METAR KABQ 172252Z 18008G17KT 10SM SCT050 BKN075 BKN120 11/M08 A3001
RMK AO2 PK WND 28029/2241 SLP147 VIRGA ALQDS T01061078





000
SAUS45 KABQ 172158 COR
MTRCQC
METAR KCQC 172153Z AUTO 24015G30KT 10SM BKN090 09/M13 A2999 RMK AO2
PK WND 25030/2147 SLP139 T00891133





000
SAUS45 KABQ 172156 COR
MTRCQC
METAR KCQC 172153Z AUTO 24015G30KT 10SM BKN090 09/M13 A2999 RMK AO2
PK WND 25030/2147 SLP139 T00891133





000
SAUS45 KABQ 172155 COR
MTRCQC
METAR KCQC 172153Z AUTO 24015G30KT 10SM BKN090 09/M13 A2999 RMK AO2
PK WND 25030/2147 SLP139 T00891133





000
SAUS45 KABQ 172154
MTRTCS
METAR KTCS 172153Z AUTO VRB03KT 10SM CLR 18/M12 A2994 RMK AO2 SLP098
T01781122 TSNO





000
SAUS45 KABQ 172154
MTRCQC
METAR KCQC 172153Z AUTO 24015G30KT 10SM BKN090 09/M13 A2999 RMK AO2
PK WND 25030/2147 SLP139 T00891133





000
SAUS45 KABQ 172152
MTRABQ
METAR KABQ 172152Z 24010G26KT 10SM SCT050 BKN080 OVC090 11/M08 A3001
RMK AO2 PK WND 23026/2150 SLP143 VIRGA ALQDS SHRA DSNT NW T01111083





000
SAUS45 KABQ 172055
MTRTCS
METAR KTCS 172053Z AUTO VRB06KT 10SM CLR 17/M12 A2997 RMK AO2 SLP110
T01671122 58022 TSNO





000
SAUS45 KABQ 172055
MTRTCS
METAR KTCS 172053Z AUTO VRB06KT 10SM CLR 17/M12 A2997 RMK AO2 SLP110
T01671122 58022 TSNO





000
SAUS45 KABQ 172054
MTRCQC
METAR KCQC 172053Z AUTO 27011G24KT 10SM SCT055 BKN070 BKN110 09/M12
A3002 RMK AO2 SLP149 T00891117 58004





000
SAUS45 KABQ 172052
MTRABQ
METAR KABQ 172052Z 21014KT 10SM SCT085 BKN110 BKN170 12/M10 A3003
RMK AO2 SLP143 VIRGA N AND SW-NW T01221100 58014





000
SAUS45 KABQ 171958 COR
MTRCQC
METAR KCQC 171953Z AUTO 23016G25KT 10SM BKN060 OVC070 07/M10 A3003
RMK AO2 PK WND 26028/1925 SLP152 T00721100





000
SAUS45 KABQ 171958 COR
MTRCQC
METAR KCQC 171953Z AUTO 23016G25KT 10SM BKN060 OVC070 07/M10 A3003
RMK AO2 PK WND 26028/1925 SLP152 T00721100





000
SAUS45 KABQ 171956 COR
MTRCQC
METAR KCQC 171953Z AUTO 23016G25KT 10SM BKN060 OVC070 07/M10 A3003
RMK AO2 PK WND 26028/1925 SLP152 T00721100





000
SAUS45 KABQ 171955 COR
MTRCQC
METAR KCQC 171953Z AUTO 23016G25KT 10SM BKN060 OVC070 07/M10 A3003
RMK AO2 PK WND 26028/1925 SLP152 T00721100





000
SAUS45 KABQ 171954
MTRTCS
METAR KTCS 171953Z AUTO VRB03KT 10SM BKN110 14/M14 A3000 RMK AO2
SLP121 T01441144 TSNO





000
SAUS45 KABQ 171954
MTRCQC
METAR KCQC 171953Z AUTO 23016G25KT 10SM BKN060 OVC070 07/M10 A3003
RMK AO2 PK WND 26028/1925 SLP152 T00721100





000
SAUS45 KABQ 171952
MTRABQ
METAR KABQ 171952Z 22011G17KT 10SM BKN085 12/M11 A3005 RMK AO2 WSHFT
1907 SLP148 VIRGA S-W-NW T01171106





000
SAUS45 KABQ 171952
MTRABQ
METAR KABQ 171952Z 22011G17KT 10SM BKN085 12/M11 A3005 RMK AO2 WSHFT
1907 SLP148 VIRGA S-W-NW T01171106





000
SAUS45 KABQ 171925
MTRABQ
SPECI KABQ 171925Z 22010G20KT 10SM FEW085 SCT110 11/M11 A3006 RMK
AO2 WSHFT 1907 VIRGA S-W T01061111





000
SAUS45 KABQ 171925
MTRABQ
SPECI KABQ 171925Z 22010G20KT 10SM FEW085 SCT110 11/M11 A3006 RMK
AO2 WSHFT 1907 VIRGA S-W T01061111





000
SAUS45 KABQ 171854
MTRCQC
METAR KCQC 171853Z AUTO 26013G21KT 10SM BKN080 BKN095 08/M13 A3002
RMK AO2 SLP137 T00781128





000
SAUS45 KABQ 171854
MTRTCS
METAR KTCS 171853Z AUTO VRB03KT 10SM BKN110 14/M14 A3003 RMK AO2
SLP129 T01441139 TSNO





000
SAUS45 KABQ 171854
MTRTCS
METAR KTCS 171853Z AUTO VRB03KT 10SM BKN110 14/M14 A3003 RMK AO2
SLP129 T01441139 TSNO





000
SAUS45 KABQ 171854
MTRCQC
METAR KCQC 171853Z AUTO 26013G21KT 10SM BKN080 BKN095 08/M13 A3002
RMK AO2 SLP137 T00781128





000
SAUS45 KABQ 171852
MTRABQ
METAR KABQ 171852Z 25011G18KT 10SM BKN080 BKN100 11/M09 A3007 RMK
AO2 SLP155 VIRGA ALQDS T01111094





000
SAUS45 KABQ 171755
MTRCQC
METAR KCQC 171753Z AUTO VRB04G18KT 10SM BKN070 08/M13 A3003 RMK AO2
SLP143 T00781128 10083 21061 50001





000
SAUS45 KABQ 171755
MTRCQC
METAR KCQC 171753Z AUTO VRB04G18KT 10SM BKN070 08/M13 A3003 RMK AO2
SLP143 T00781128 10083 21061 50001





000
SAUS45 KABQ 171754
MTRTCS
METAR KTCS 171753Z AUTO 10SM BKN100 13/M15 A3005 RMK AO2 SLP138
T01281150 10133 20022 58009 TSNO





000
SAUS45 KABQ 171754
MTRTCS
METAR KTCS 171753Z AUTO 10SM BKN100 13/M15 A3005 RMK AO2 SLP138
T01281150 10133 20022 58009 TSNO





000
SAUS45 KABQ 171753
MTRABQ
METAR KABQ 171752Z VRB05KT 10SM BKN085 10/M12 A3007 RMK AO2 SLP157
VIRGA SW-NW T01001117 10100 21011 56002





000
SAUS45 KABQ 171753
MTRABQ
METAR KABQ 171752Z VRB05KT 10SM BKN085 10/M12 A3007 RMK AO2 SLP157
VIRGA SW-NW T01001117 10100 21011 56002





000
SAUS45 KABQ 171655
MTRTCS
METAR KTCS 171653Z AUTO 16011KT 10SM CLR 12/M16 A3006 RMK AO2 SLP142
T01171161 TSNO





000
SAUS45 KABQ 171655
MTRTCS
METAR KTCS 171653Z AUTO 16011KT 10SM CLR 12/M16 A3006 RMK AO2 SLP142
T01171161 TSNO





000
SAUS45 KABQ 171654
MTRCQC
METAR KCQC 171653Z AUTO 24011KT 10SM CLR 07/M14 A3004 RMK AO2 SLP155
T00671139





000
SAUS45 KABQ 171654
MTRCQC
METAR KCQC 171653Z AUTO 24011KT 10SM CLR 07/M14 A3004 RMK AO2 SLP155
T00671139





000
SAUS45 KABQ 171652
MTRABQ
METAR KABQ 171652Z VRB04KT 10SM BKN075 09/M13 A3008 RMK AO2 SLP159
VIRGA W-NW T00891133





000
SAUS45 KABQ 171555
MTRTCS
METAR KTCS 171553Z AUTO 14005KT 10SM CLR 09/M16 A3007 RMK AO2 SLP149
T00941161 TSNO





000
SAUS45 KABQ 171554
MTRCQC
METAR KCQC 171553Z AUTO 27013G20KT 10SM CLR 06/M14 A3003 RMK AO2
SLP149 T00561139





000
SAUS45 KABQ 171554
MTRCQC
METAR KCQC 171553Z AUTO 27013G20KT 10SM CLR 06/M14 A3003 RMK AO2
SLP149 T00561139





000
SAUS45 KABQ 171553
MTRABQ
METAR KABQ 171552Z 00000KT 10SM FEW080 FEW140 FEW200 07/M13 A3007
RMK AO2 SLP160 ACSL NE-E T00671133





000
SAUS45 KABQ 171455
MTRTCS
METAR KTCS 171453Z AUTO 14004KT 10SM CLR 06/M16 A3008 RMK AO2 SLP153
T00611161 51012 TSNO





000
SAUS45 KABQ 171454
MTRCQC
METAR KCQC 171453Z AUTO 30009KT 10SM CLR 04/M14 A3002 RMK AO2 SLP149
T00391144 50001





000
SAUS45 KABQ 171452
MTRABQ
METAR KABQ 171452Z 19004KT 10SM FEW080 FEW200 04/M14 A3008 RMK AO2
SLP167 T00391139 50005





000
SAUS45 KABQ 171452
MTRABQ
METAR KABQ 171452Z 19004KT 10SM FEW080 FEW200 04/M14 A3008 RMK AO2
SLP167 T00391139 50005





000
SAUS45 KABQ 171354
MTRTCS
METAR KTCS 171353Z AUTO 18005KT 10SM CLR 04/M19 A3007 RMK AO2 SLP151
T00391194 TSNO





000
SAUS45 KABQ 171354
MTRCQC
METAR KCQC 171353Z AUTO 30009KT 10SM CLR 01/M14 A3003 RMK AO2 SLP155
T00061139





000
SAUS45 KABQ 171352
MTRABQ
METAR KABQ 171352Z 11003KT 10SM FEW100 SCT250 02/M13 A3008 RMK AO2
SLP170 T00171133





000
SAUS45 KABQ 171254
MTRTCS
METAR KTCS 171253Z AUTO 31012KT 10SM CLR 03/M20 A3005 RMK AO2 SLP143
T00281200 TSNO





000
SAUS45 KABQ 171254
MTRCQC
METAR KCQC 171253Z AUTO 28008KT 10SM CLR M06/M16 A3003 RMK AO2
SLP165 T10611156





000
SAUS45 KABQ 171254
MTRCQC
METAR KCQC 171253Z AUTO 28008KT 10SM CLR M06/M16 A3003 RMK AO2
SLP165 T10611156





000
SAUS45 KABQ 171254
MTRTCS
METAR KTCS 171253Z AUTO 31012KT 10SM CLR 03/M20 A3005 RMK AO2 SLP143
T00281200 TSNO





000
SAUS45 KABQ 171253
MTRABQ
METAR KABQ 171252Z 18005KT 10SM SCT100 01/M14 A3008 RMK AO2 SLP171
T00061139





000
SAUS45 KABQ 171154
MTRTCS
METAR KTCS 171153Z AUTO 32009KT 10SM CLR 02/M21 A3004 RMK AO2 SLP134
T00221206 10072 20017 56006 TSNO





000
SAUS45 KABQ 171154
MTRCQC
METAR KCQC 171153Z AUTO 00000KT 10SM CLR M03/M16 A3002 RMK AO2
SLP137 T10281156 10017 21044 51003





000
SAUS45 KABQ 171153
MTRABQ
METAR KABQ 171152Z 17006KT 10SM CLR 01/M14 A3006 RMK AO2 SLP162
T00061139 10067 21011 55001





000
SAUS45 KABQ 171054
MTRTCS
METAR KTCS 171053Z AUTO 35006KT 10SM CLR 04/M21 A3004 RMK AO2 SLP132
T00391206 TSNO





000
SAUS45 KABQ 171054
MTRCQC
METAR KCQC 171053Z AUTO 28004KT 10SM CLR M03/M16 A3002 RMK AO2
SLP133 T10331156





000
SAUS45 KABQ 171054
MTRTCS
METAR KTCS 171053Z AUTO 35006KT 10SM CLR 04/M21 A3004 RMK AO2 SLP132
T00391206 TSNO





000
SAUS45 KABQ 171054
MTRCQC
METAR KCQC 171053Z AUTO 28004KT 10SM CLR M03/M16 A3002 RMK AO2
SLP133 T10331156





000
SAUS45 KABQ 171053
MTRABQ
METAR KABQ 171052Z 11008KT 10SM CLR 01/M14 A3006 RMK AO2 SLP156
T00061139





000
SAUS45 KABQ 171053
MTRABQ
METAR KABQ 171052Z 11008KT 10SM CLR 01/M14 A3006 RMK AO2 SLP156
T00061139





000
SAUS45 KABQ 170955
MTRTCS
METAR KTCS 170953Z AUTO 33007KT 10SM CLR 03/M20 A3004 RMK AO2 SLP133
T00281200 TSNO





000
SAUS45 KABQ 170955
MTRTCS
METAR KTCS 170953Z AUTO 33007KT 10SM CLR 03/M20 A3004 RMK AO2 SLP133
T00281200 TSNO





000
SAUS45 KABQ 170954
MTRCQC
METAR KCQC 170953Z AUTO 27011KT 10SM CLR M04/M15 A3002 RMK AO2
SLP136 T10391150





000
SAUS45 KABQ 170952
MTRABQ
METAR KABQ 170952Z 27006KT 10SM CLR 02/M13 A3007 RMK AO2 SLP153
T00221133





000
SAUS45 KABQ 170854
MTRTCS
METAR KTCS 170853Z AUTO 32010KT 10SM CLR 04/M20 A3006 RMK AO2 SLP134
T00441200 50002 TSNO





000
SAUS45 KABQ 170854
MTRCQC
METAR KCQC 170853Z AUTO 28009KT 10SM CLR M04/M15 A3001 RMK AO2
SLP130 T10391150 56006





000
SAUS45 KABQ 170852
MTRABQ
METAR KABQ 170852Z 21008KT 10SM FEW140 03/M13 A3007 RMK AO2 SLP150
T00331128 55004





000
SAUS45 KABQ 170754
MTRTCS
METAR KTCS 170753Z AUTO 34005KT 10SM CLR 05/M19 A3007 RMK AO2 SLP138
T00501189 TSNO





000
SAUS45 KABQ 170754
MTRTCS
METAR KTCS 170753Z AUTO 34005KT 10SM CLR 05/M19 A3007 RMK AO2 SLP138
T00501189 TSNO





000
SAUS45 KABQ 170754
MTRCQC
METAR KCQC 170753Z AUTO 29011KT 10SM SCT100 M01/M15 A3001 RMK AO2
SLP121 T10111150





000
SAUS45 KABQ 170752
MTRABQ
METAR KABQ 170752Z 00000KT 10SM FEW140 05/M13 A3006 RMK AO2 SLP147
T00501128





000
SAUS45 KABQ 170655
MTRCQC
METAR KCQC 170653Z AUTO 30016KT 10SM OVC100 02/M16 A3002 RMK AO2
SLP116 T00171156 401671006





000
SAUS45 KABQ 170654
MTRTCS
METAR KTCS 170653Z AUTO 35008KT 10SM CLR 07/M19 A3007 RMK AO2 SLP137
T00671189 401940044 TSNO





000
SAUS45 KABQ 170653
MTRABQ
METAR KABQ 170652Z 32005KT 10SM SCT140 06/M13 A3007 RMK AO2 SLP154
T00561133 401671006





000
SAUS45 KABQ 170554
MTRCQC
METAR KCQC 170553Z AUTO 29012KT 10SM OVC110 01/M16 A3003 RMK AO2
SLP125 T00111156 10122 21006 50008





000
SAUS45 KABQ 170554
MTRTCS
METAR KTCS 170553Z AUTO 30008KT 10SM CLR 07/M18 A3005 RMK AO2 SLP130
T00721178 10172 20072 51016 TSNO





000
SAUS45 KABQ 170554
MTRCQC
METAR KCQC 170553Z AUTO 29012KT 10SM OVC110 01/M16 A3003 RMK AO2
SLP125 T00111156 10122 21006 50008





000
SAUS45 KABQ 170554
MTRTCS
METAR KTCS 170553Z AUTO 30008KT 10SM CLR 07/M18 A3005 RMK AO2 SLP130
T00721178 10172 20072 51016 TSNO





000
SAUS45 KABQ 170552
MTRABQ
METAR KABQ 170552Z 34008KT 10SM BKN140 07/M14 A3008 RMK AO2 SLP158
T00671139 10122 20067 51013





000
SAUS45 KABQ 170455
MTRCQC
METAR KCQC 170453Z AUTO 30013KT 10SM CLR 00/M16 A3003 RMK AO2 SLP135
T00001156





000
SAUS45 KABQ 170454
MTRTCS
METAR KTCS 170453Z AUTO 32009KT 10SM CLR 08/M17 A3003 RMK AO2 SLP124
T00781167 TSNO





000
SAUS45 KABQ 170453
MTRABQ
METAR KABQ 170452Z 30008KT 10SM BKN140 08/M14 A3008 RMK AO2 SLP156
T00781144





000
SAUS45 KABQ 170354
MTRCQC
METAR KCQC 170353Z AUTO 31014KT 10SM CLR 02/M15 A3003 RMK AO2 SLP134
T00171150





000
SAUS45 KABQ 170354
MTRTCS
METAR KTCS 170353Z AUTO 32008KT 10SM CLR 09/M17 A3004 RMK AO2 SLP127
T00891167 TSNO





000
SAUS45 KABQ 170354
MTRTCS
METAR KTCS 170353Z AUTO 32008KT 10SM CLR 09/M17 A3004 RMK AO2 SLP127
T00891167 TSNO





000
SAUS45 KABQ 170354
MTRCQC
METAR KCQC 170353Z AUTO 31014KT 10SM CLR 02/M15 A3003 RMK AO2 SLP134
T00171150





000
SAUS45 KABQ 170352
MTRABQ
METAR KABQ 170352Z 28008KT 10SM BKN140 08/M14 A3007 RMK AO2 SLP156
T00831144





000
SAUS45 KABQ 170254
MTRTCS
METAR KTCS 170253Z AUTO 32010KT 10SM CLR 11/M17 A3000 RMK AO2 SLP113
T01111167 53033 TSNO





000
SAUS45 KABQ 170254
MTRCQC
METAR KCQC 170253Z AUTO 31014KT 10SM CLR 02/M14 A3000 RMK AO2 SLP128
T00221144 51040





000
SAUS45 KABQ 170252
MTRABQ
METAR KABQ 170252Z 30015KT 10SM BKN120 09/M15 A3004 RMK AO2 SLP147
T00891150 51037





000
SAUS45 KABQ 170252
MTRABQ
METAR KABQ 170252Z 30015KT 10SM BKN120 09/M15 A3004 RMK AO2 SLP147
T00891150 51037





000
SAUS45 KABQ 170154
MTRTCS
METAR KTCS 170153Z AUTO 29007KT 10SM CLR 13/M21 A2995 RMK AO2 SLP096
T01331211 TSNO





000
SAUS45 KABQ 170154
MTRTCS
METAR KTCS 170153Z AUTO 29007KT 10SM CLR 13/M21 A2995 RMK AO2 SLP096
T01331211 TSNO





000
SAUS45 KABQ 170154
MTRCQC
METAR KCQC 170153Z AUTO 30021G27KT 10SM CLR 04/M14 A2996 RMK AO2 PK
WND 30031/0138 SLP110 T00441139 $





000
SAUS45 KABQ 170154
MTRCQC
METAR KCQC 170153Z AUTO 30021G27KT 10SM CLR 04/M14 A2996 RMK AO2 PK
WND 30031/0138 SLP110 T00441139 $





000
SAUS45 KABQ 170152
MTRABQ
METAR KABQ 170152Z 34009KT 10SM BKN130 10/M13 A2999 RMK AO2 SLP134
T01001133





000
SAUS45 KABQ 170101 COR
MTRCQC
METAR KCQC 170053Z AUTO 28023KT 10SM CLR 08/M17 A2991 RMK AO2 PK WND
24039/2354 WSHFT 2353 SLP102 T00831167 $





000
SAUS45 KABQ 170101 COR
MTRCQC
METAR KCQC 170053Z AUTO 28023KT 10SM CLR 08/M17 A2991 RMK AO2 PK WND
24039/2354 WSHFT 2353 SLP102 T00831167 $





000
SAUS45 KABQ 170059 COR
MTRCQC
METAR KCQC 170053Z AUTO 28023KT 10SM CLR 08/M17 A2991 RMK AO2 PK WND
24039/2354 WSHFT 2353 SLP102 T00831167 $





000
SAUS45 KABQ 170058 COR
MTRCQC
METAR KCQC 170053Z AUTO 28023KT 10SM CLR 08/M17 A2991 RMK AO2 PK WND
24039/2354 WSHFT 2353 SLP102 T00831167 $





000
SAUS45 KABQ 170058 COR
MTRCQC
METAR KCQC 170053Z AUTO 28023KT 10SM CLR 08/M17 A2991 RMK AO2 PK WND
24039/2354 WSHFT 2353 SLP102 T00831167 $





000
SAUS45 KABQ 170056 COR
MTRCQC
METAR KCQC 170053Z AUTO 28023KT 10SM CLR 08/M17 A2991 RMK AO2 PK WND
24039/2354 WSHFT 2353 SLP102 T00831167 $





000
SAUS45 KABQ 170056 COR
MTRCQC
METAR KCQC 170053Z AUTO 28023KT 10SM CLR 08/M17 A2991 RMK AO2 PK WND
24039/2354 WSHFT 2353 SLP102 T00831167 $





000
SAUS45 KABQ 170055 COR
MTRCQC
METAR KCQC 170053Z AUTO 28023KT 10SM CLR 08/M17 A2991 RMK AO2 PK WND
24039/2354 WSHFT 2353 SLP102 T00831167 $





000
SAUS45 KABQ 170055 COR
MTRCQC
METAR KCQC 170053Z AUTO 28023KT 10SM CLR 08/M17 A2991 RMK AO2 PK WND
24039/2354 WSHFT 2353 SLP102 T00831167 $





000
SAUS45 KABQ 170054
MTRTCS
METAR KTCS 170053Z AUTO 26017G22KT 10SM CLR 16/M21 A2992 RMK AO2 PK
WND 24030/2356 SLP084 T01561211 TSNO





000
SAUS45 KABQ 170054
MTRCQC
METAR KCQC 170053Z AUTO 28023KT 10SM CLR 08/M17 A2991 RMK AO2 PK WND
24039/2354 WSHFT 2353 SLP102 T00831167 $





000
SAUS45 KABQ 170054
MTRCQC
METAR KCQC 170053Z AUTO 28023KT 10SM CLR 08/M17 A2991 RMK AO2 PK WND
24039/2354 WSHFT 2353 SLP102 T00831167 $





000
SAUS45 KABQ 170054
MTRTCS
METAR KTCS 170053Z AUTO 26017G22KT 10SM CLR 16/M21 A2992 RMK AO2 PK
WND 24030/2356 SLP084 T01561211 TSNO





000
SAUS45 KABQ 170053
MTRABQ
METAR KABQ 170052Z 33016G21KT 10SM FEW120 BKN150 10/M12 A2996 RMK
AO2 PK WND 29032/2355 SLP125 T01001122





000
SAUS45 KABQ 170053
MTRABQ
METAR KABQ 170052Z 33016G21KT 10SM FEW120 BKN150 10/M12 A2996 RMK
AO2 PK WND 29032/2355 SLP125 T01001122





000
SAUS45 KABQ 170014
MTRCQC
SPECI KCQC 170013Z AUTO 27020G30KT 10SM CLR 11/M18 A2988 RMK AO2 PK
WND 24039/2354 WSHFT 2353 T01111183 $





000
SAUS45 KABQ 170014
MTRCQC
SPECI KCQC 170013Z AUTO 27020G30KT 10SM CLR 11/M18 A2988 RMK AO2 PK
WND 24039/2354 WSHFT 2353 T01111183 $





000
SAUS45 KABQ 162358 COR
MTRCQC
METAR KCQC 162353Z AUTO 23033G41KT 10SM CLR 12/M23 A2986 RMK AO2 PK
WND 20045/2307 SLP069 T01221228 10167 20122 55002 $





000
SAUS45 KABQ 162358 COR
MTRCQC
METAR KCQC 162353Z AUTO 23033G41KT 10SM CLR 12/M23 A2986 RMK AO2 PK
WND 20045/2307 SLP069 T01221228 10167 20122 55002 $





000
SAUS45 KABQ 162356 COR
MTRCQC
METAR KCQC 162353Z AUTO 23033G41KT 10SM CLR 12/M23 A2986 RMK AO2 PK
WND 20045/2307 SLP069 T01221228 10167 20122 55002 $





000
SAUS45 KABQ 162356 COR
MTRCQC
METAR KCQC 162353Z AUTO 23033G41KT 10SM CLR 12/M23 A2986 RMK AO2 PK
WND 20045/2307 SLP069 T01221228 10167 20122 55002 $





000
SAUS45 KABQ 162355
MTRTCS
METAR KTCS 162353Z AUTO 25018G30KT 10SM CLR 17/M21 A2989 RMK AO2 PK
WND 27033/2301 SLP068 T01721211 10194 20167 53013 TSNO





000
SAUS45 KABQ 162355
MTRTCS
METAR KTCS 162353Z AUTO 25018G30KT 10SM CLR 17/M21 A2989 RMK AO2 PK
WND 27033/2301 SLP068 T01721211 10194 20167 53013 TSNO





000
SAUS45 KABQ 162355 COR
MTRCQC
METAR KCQC 162353Z AUTO 23033G41KT 10SM CLR 12/M23 A2986 RMK AO2 PK
WND 20045/2307 SLP069 T01221228 10167 20122 55002 $





000
SAUS45 KABQ 162355 COR
MTRCQC
METAR KCQC 162353Z AUTO 23033G41KT 10SM CLR 12/M23 A2986 RMK AO2 PK
WND 20045/2307 SLP069 T01221228 10167 20122 55002 $





000
SAUS45 KABQ 162354
MTRCQC
METAR KCQC 162353Z AUTO 23033G41KT 10SM CLR 12/M23 A2986 RMK AO2 PK
WND 20045/2307 SLP069 T01221228 10167 20122 55002 $





000
SAUS45 KABQ 162354
MTRCQC
METAR KCQC 162353Z AUTO 23033G41KT 10SM CLR 12/M23 A2986 RMK AO2 PK
WND 20045/2307 SLP069 T01221228 10167 20122 55002 $





000
SAUS45 KABQ 162353
MTRABQ
METAR KABQ 162352Z 29024G31KT 10SM FEW120 BKN150 12/M15 A2991 RMK
AO2 PK WND 27031/2256 SLP105 T01221150 10167 20111 53033





000
SAUS45 KABQ 162353
MTRABQ
METAR KABQ 162352Z 29024G31KT 10SM FEW120 BKN150 12/M15 A2991 RMK
AO2 PK WND 27031/2256 SLP105 T01221150 10167 20111 53033





000
SAUS45 KABQ 162256 COR
MTRTCS
METAR KTCS 162253Z AUTO 26021G33KT 10SM CLR 18/M21 A2986 RMK AO2 PK
WND 23036/2158 SLP055 T01831211 TSNO





000
SAUS45 KABQ 162256 COR
MTRTCS
METAR KTCS 162253Z AUTO 26021G33KT 10SM CLR 18/M21 A2986 RMK AO2 PK
WND 23036/2158 SLP055 T01831211 TSNO





000
SAUS45 KABQ 162255 COR
MTRTCS
METAR KTCS 162253Z AUTO 26021G33KT 10SM CLR 18/M21 A2986 RMK AO2 PK
WND 23036/2158 SLP055 T01831211 TSNO





000
SAUS45 KABQ 162255 COR
MTRTCS
METAR KTCS 162253Z AUTO 26021G33KT 10SM CLR 18/M21 A2986 RMK AO2 PK
WND 23036/2158 SLP055 T01831211 TSNO





000
SAUS45 KABQ 162254
MTRCQC
METAR KCQC 162253Z AUTO 20033G42KT 10SM CLR 14/M18 A2984 RMK AO2 PK
WND 21048/2230 SLP059 T01391183 $





000
SAUS45 KABQ 162253
MTRABQ
METAR KABQ 162252Z 28020G31KT 10SM FEW110 SCT140 14/M15 A2986 RMK
AO2 PK WND 28033/2159 SLP089 T01441150





000
SAUS45 KABQ 162253
MTRABQ
METAR KABQ 162252Z 28020G31KT 10SM FEW110 SCT140 14/M15 A2986 RMK
AO2 PK WND 28033/2159 SLP089 T01441150





000
SAUS45 KABQ 162202 COR
MTRCQC
METAR KCQC 162153Z AUTO 21028G44KT 10SM CLR 15/M17 A2985 RMK AO2 PK
WND 22047/2129 SLP055 T01501172 $





000
SAUS45 KABQ 162201 COR
MTRCQC
METAR KCQC 162153Z AUTO 21028G44KT 10SM CLR 15/M17 A2985 RMK AO2 PK
WND 22047/2129 SLP055 T01501172 $





000
SAUS45 KABQ 162159 COR
MTRCQC
METAR KCQC 162153Z AUTO 21028G44KT 10SM CLR 15/M17 A2985 RMK AO2 PK
WND 22047/2129 SLP055 T01501172 $





000
SAUS45 KABQ 162158 COR
MTRCQC
METAR KCQC 162153Z AUTO 21028G44KT 10SM CLR 15/M17 A2985 RMK AO2 PK
WND 22047/2129 SLP055 T01501172 $





000
SAUS45 KABQ 162158 COR
MTRCQC
METAR KCQC 162153Z AUTO 21028G44KT 10SM CLR 15/M17 A2985 RMK AO2 PK
WND 22047/2129 SLP055 T01501172 $





000
SAUS45 KABQ 162156 COR
MTRCQC
METAR KCQC 162153Z AUTO 21028G44KT 10SM CLR 15/M17 A2985 RMK AO2 PK
WND 22047/2129 SLP055 T01501172 $





000
SAUS45 KABQ 162156 COR
MTRCQC
METAR KCQC 162153Z AUTO 21028G44KT 10SM CLR 15/M17 A2985 RMK AO2 PK
WND 22047/2129 SLP055 T01501172 $





000
SAUS45 KABQ 162155 COR
MTRCQC
METAR KCQC 162153Z AUTO 21028G44KT 10SM CLR 15/M17 A2985 RMK AO2 PK
WND 22047/2129 SLP055 T01501172 $





000
SAUS45 KABQ 162154
MTRTCS
METAR KTCS 162153Z AUTO 23025G41KT 10SM CLR 19/M23 A2984 RMK AO2 PK
WND 22042/2056 SLP048 T01891233 TSNO





000
SAUS45 KABQ 162154
MTRCQC
METAR KCQC 162153Z AUTO 21028G44KT 10SM CLR 15/M17 A2985 RMK AO2 PK
WND 22047/2129 SLP055 T01501172 $





000
SAUS45 KABQ 162154
MTRTCS
METAR KTCS 162153Z AUTO 23025G41KT 10SM CLR 19/M23 A2984 RMK AO2 PK
WND 22042/2056 SLP048 T01891233 TSNO





000
SAUS45 KABQ 162152
MTRABQ
METAR KABQ 162152Z 28024G31KT 10SM FEW120 SCT140 16/M16 A2982 RMK
AO2 PK WND 28035/2129 WSHFT 2116 SLP060 T01561156





000
SAUS45 KABQ 162152
MTRABQ
METAR KABQ 162152Z 28024G31KT 10SM FEW120 SCT140 16/M16 A2982 RMK
AO2 PK WND 28035/2129 WSHFT 2116 SLP060 T01561156





000
SAUS45 KABQ 162131
MTRABQ
SPECI KABQ 162131Z 30023G35KT 10SM VCBLDU SCT120 SCT140 16/M16 A2979
RMK AO2 PK WND 28035/2129 WSHFT 2116 T01561161





000
SAUS45 KABQ 162103 COR
MTRCQC
METAR KCQC 162053Z AUTO 18025G46KT 10SM FEW100 15/M12 A2986 RMK AO2
PK WND 20046/2048 SLP053 T01501117 58013 $





000
SAUS45 KABQ 162102 COR
MTRCQC
METAR KCQC 162053Z AUTO 18025G46KT 10SM FEW100 15/M12 A2986 RMK AO2
PK WND 20046/2048 SLP053 T01501117 58013 $





000
SAUS45 KABQ 162101 COR
MTRCQC
METAR KCQC 162053Z AUTO 18025G46KT 10SM FEW100 15/M12 A2986 RMK AO2
PK WND 20046/2048 SLP053 T01501117 58013 $





000
SAUS45 KABQ 162059 COR
MTRCQC
METAR KCQC 162053Z AUTO 18025G46KT 10SM FEW100 15/M12 A2986 RMK AO2
PK WND 20046/2048 SLP053 T01501117 58013 $





000
SAUS45 KABQ 162059 COR
MTRCQC
METAR KCQC 162053Z AUTO 18025G46KT 10SM FEW100 15/M12 A2986 RMK AO2
PK WND 20046/2048 SLP053 T01501117 58013 $





000
SAUS45 KABQ 162058 COR
MTRCQC
METAR KCQC 162053Z AUTO 18025G46KT 10SM FEW100 15/M12 A2986 RMK AO2
PK WND 20046/2048 SLP053 T01501117 58013 $





000
SAUS45 KABQ 162056 COR
MTRCQC
METAR KCQC 162053Z AUTO 18025G46KT 10SM FEW100 15/M12 A2986 RMK AO2
PK WND 20046/2048 SLP053 T01501117 58013 $





000
SAUS45 KABQ 162056 COR
MTRCQC
METAR KCQC 162053Z AUTO 18025G46KT 10SM FEW100 15/M12 A2986 RMK AO2
PK WND 20046/2048 SLP053 T01501117 58013 $





000
SAUS45 KABQ 162055 COR
MTRCQC
METAR KCQC 162053Z AUTO 18025G46KT 10SM FEW100 15/M12 A2986 RMK AO2
PK WND 20046/2048 SLP053 T01501117 58013 $





000
SAUS45 KABQ 162054
MTRCQC
METAR KCQC 162053Z AUTO 18025G46KT 10SM FEW100 15/M12 A2986 RMK AO2
PK WND 20046/2048 SLP053 T01501117 58013 $





000
SAUS45 KABQ 162054
MTRTCS
METAR KTCS 162053Z AUTO 23027G41KT 10SM CLR 19/M24 A2984 RMK AO2 PK
WND 22045/2004 SLP047 T01941244 56013 TSNO





000
SAUS45 KABQ 162054
MTRCQC
METAR KCQC 162053Z AUTO 18025G46KT 10SM FEW100 15/M12 A2986 RMK AO2
PK WND 20046/2048 SLP053 T01501117 58013 $





000
SAUS45 KABQ 162054
MTRTCS
METAR KTCS 162053Z AUTO 23027G41KT 10SM CLR 19/M24 A2984 RMK AO2 PK
WND 22045/2004 SLP047 T01941244 56013 TSNO





000
SAUS45 KABQ 162052
MTRABQ
METAR KABQ 162052Z 25008G17KT 210V280 10SM SCT120 BKN150 16/M14
A2980 RMK AO2 SLP051 T01561144 58039





000
SAUS45 KABQ 161954
MTRTCS
METAR KTCS 161953Z AUTO 21026G37KT 10SM CLR 19/M21 A2985 RMK AO2 PK
WND 21038/1929 SLP049 T01891206 TSNO





000
SAUS45 KABQ 161954
MTRCQC
METAR KCQC 161953Z AUTO 19026G38KT 10SM SCT100 16/M12 A2988 RMK AO2
PK WND 18040/1909 SLP063 T01561117





000
SAUS45 KABQ 161954
MTRTCS
METAR KTCS 161953Z AUTO 21026G37KT 10SM CLR 19/M21 A2985 RMK AO2 PK
WND 21038/1929 SLP049 T01891206 TSNO





000
SAUS45 KABQ 161954
MTRCQC
METAR KCQC 161953Z AUTO 19026G38KT 10SM SCT100 16/M12 A2988 RMK AO2
PK WND 18040/1909 SLP063 T01561117





000
SAUS45 KABQ 161952
MTRABQ
METAR KABQ 161952Z VRB06G17KT 10SM FEW120 FEW140 15/M15 A2984 RMK
AO2 SLP067 T01501150





000
SAUS45 KABQ 161901 COR
MTRCQC
METAR KCQC 161853Z AUTO 20023G36KT 10SM BKN100 16/M12 A2989 RMK AO2
PK WND 18036/1853 SLP063 T01611117





000
SAUS45 KABQ 161901 COR
MTRCQC
METAR KCQC 161853Z AUTO 20023G36KT 10SM BKN100 16/M12 A2989 RMK AO2
PK WND 18036/1853 SLP063 T01611117





000
SAUS45 KABQ 161859 COR
MTRCQC
METAR KCQC 161853Z AUTO 20023G36KT 10SM BKN100 16/M12 A2989 RMK AO2
PK WND 18036/1853 SLP063 T01611117





000
SAUS45 KABQ 161859 COR
MTRCQC
METAR KCQC 161853Z AUTO 20023G36KT 10SM BKN100 16/M12 A2989 RMK AO2
PK WND 18036/1853 SLP063 T01611117





000
SAUS45 KABQ 161858 COR
MTRCQC
METAR KCQC 161853Z AUTO 20023G36KT 10SM BKN100 16/M12 A2989 RMK AO2
PK WND 18036/1853 SLP063 T01611117





000
SAUS45 KABQ 161858 COR
MTRCQC
METAR KCQC 161853Z AUTO 20023G36KT 10SM BKN100 16/M12 A2989 RMK AO2
PK WND 18036/1853 SLP063 T01611117





000
SAUS45 KABQ 161856 COR
MTRCQC
METAR KCQC 161853Z AUTO 20023G36KT 10SM BKN100 16/M12 A2989 RMK AO2
PK WND 18036/1853 SLP063 T01611117





000
SAUS45 KABQ 161855 COR
MTRCQC
METAR KCQC 161853Z AUTO 20023G36KT 10SM BKN100 16/M12 A2989 RMK AO2
PK WND 18036/1853 SLP063 T01611117





000
SAUS45 KABQ 161854
MTRTCS
METAR KTCS 161853Z AUTO 20022G36KT 10SM CLR 18/M16 A2987 RMK AO2 PK
WND 21036/1845 SLP055 T01831161 TSNO





000
SAUS45 KABQ 161854
MTRCQC
METAR KCQC 161853Z AUTO 20023G36KT 10SM BKN100 16/M12 A2989 RMK AO2
PK WND 18036/1853 SLP063 T01611117





000
SAUS45 KABQ 161853
MTRABQ
METAR KABQ 161852Z VRB03KT 10SM FEW110 12/M15 A2989 RMK AO2 SLP086
T01221150





000
SAUS45 KABQ 161755
MTRCQC
METAR KCQC 161753Z AUTO 24008G24KT 10SM CLR 14/M12 A2991 RMK AO2
SLP069 T01441122 10144 21006 58001





000
SAUS45 KABQ 161755
MTRCQC
METAR KCQC 161753Z AUTO 24008G24KT 10SM CLR 14/M12 A2991 RMK AO2
SLP069 T01441122 10144 21006 58001





000
SAUS45 KABQ 161754
MTRTCS
METAR KTCS 161753Z AUTO 22021G34KT 10SM CLR 18/M18 A2988 RMK AO2 PK
WND 23034/1750 SLP060 T01781178 10178 20083 53002 TSNO





000
SAUS45 KABQ 161754
MTRTCS
METAR KTCS 161753Z AUTO 22021G34KT 10SM CLR 18/M18 A2988 RMK AO2 PK
WND 23034/1750 SLP060 T01781178 10178 20083 53002 TSNO





000
SAUS45 KABQ 161753
MTRABQ
METAR KABQ 161752Z 00000KT 10SM SCT140 11/M16 A2993 RMK AO2 SLP100
T01061156 10111 20011 58006





000
SAUS45 KABQ 161753
MTRABQ
METAR KABQ 161752Z 00000KT 10SM SCT140 11/M16 A2993 RMK AO2 SLP100
T01061156 10111 20011 58006





    US Dept of Commerce
    National Oceanic and Atmospheric Administration
    National Weather Service
    1325 East West Highway
    Silver Spring, MD 20910
    Page Author: NWS Internet Services Team
Disclaimer
Information Quality
Credits
Glossary
Privacy Policy
Freedom of Information Act (FOIA)
About Us
Career Opportunities